createdAt,value
2022-12-01T00:01:13.033Z,23.40
2022-12-01T00:03:40.335Z,24.47
2022-12-01T00:06:11.727Z,21.93
2022-12-01T00:08:38.954Z,23.23
2022-12-01T00:11:12.093Z,24.37
2022-12-01T00:13:39.118Z,25.50
2022-12-01T00:16:16.501Z,23.87
2022-12-01T00:18:43.834Z,23.50
2022-12-01T00:21:15.158Z,22.27
2022-12-01T00:23:47.517Z,22.67
2022-12-01T00:26:15.884Z,22.70
2022-12-01T00:28:43.095Z,24.40
2022-12-01T00:31:11.275Z,22.00
2022-12-01T00:33:39.047Z,22.80
2022-12-01T00:36:06.781Z,22.73
2022-12-01T00:38:34.283Z,23.20
2022-12-01T00:41:01.201Z,23.20
2022-12-01T00:43:27.958Z,23.00
2022-12-01T00:45:56.383Z,22.87
2022-12-01T00:48:23.836Z,28.80
2022-12-01T00:50:52.446Z,23.30
2022-12-01T00:53:19.997Z,44.20
2022-12-01T00:55:46.928Z,22.00
2022-12-01T00:58:13.761Z,27.57
2022-12-01T01:00:40.573Z,22.63
2022-12-01T01:03:07.928Z,22.63
2022-12-01T01:05:39.271Z,22.77
2022-12-01T01:08:11.047Z,23.23
2022-12-01T01:10:42.922Z,22.70
2022-12-01T01:13:10.337Z,22.03
2022-12-01T01:15:37.574Z,22.20
2022-12-01T01:18:05.059Z,22.70
2022-12-01T01:20:32.228Z,22.50
2022-12-01T01:22:59.153Z,22.57
2022-12-01T01:25:26.194Z,21.57
2022-12-01T01:27:53.101Z,20.90
2022-12-01T01:30:20.087Z,22.60
2022-12-01T01:32:47.137Z,22.37
2022-12-01T01:35:13.953Z,22.20
2022-12-01T01:37:40.825Z,22.43
2022-12-01T01:40:08.186Z,22.93
2022-12-01T01:42:35.124Z,21.63
2022-12-01T01:45:01.964Z,22.63
2022-12-01T01:47:35.084Z,22.43
2022-12-01T01:50:14.841Z,22.90
2022-12-01T01:52:57.274Z,23.57
2022-12-01T01:55:24.346Z,21.40
2022-12-01T01:57:51.223Z,21.33
2022-12-01T02:00:20.430Z,20.47
2022-12-01T02:02:48.821Z,21.87
2022-12-01T02:05:25.771Z,22.33
2022-12-01T02:07:55.224Z,21.20
2022-12-01T02:10:30.052Z,21.13
2022-12-01T02:13:22.687Z,20.47
2022-12-01T02:15:58.364Z,21.00
2022-12-01T02:18:34.127Z,22.40
2022-12-01T02:22:01.865Z,22.30
2022-12-01T02:24:52.104Z,21.07
2022-12-01T02:27:27.865Z,21.23
2022-12-01T02:30:09.087Z,21.67
2022-12-01T02:32:54.648Z,20.67
2022-12-01T02:35:31.296Z,22.17
2022-12-01T02:38:14.739Z,21.30
2022-12-01T02:40:51.757Z,21.17
2022-12-01T02:43:33.832Z,21.33
2022-12-01T02:46:20.802Z,22.27
2022-12-01T02:48:51.310Z,20.33
2022-12-01T02:51:26.709Z,21.93
2022-12-01T02:53:54.950Z,22.63
2022-12-01T02:56:23.938Z,21.00
2022-12-01T02:58:51.737Z,20.37
2022-12-01T03:01:46.411Z,21.37
2022-12-01T03:04:38.147Z,20.93
2022-12-01T03:07:35.985Z,21.60
2022-12-01T03:10:05.837Z,21.10
2022-12-01T03:12:44.539Z,22.87
2022-12-01T03:15:36.042Z,21.37
2022-12-01T03:18:26.971Z,21.40
2022-12-01T03:21:02.730Z,21.13
2022-12-01T03:23:33.797Z,22.07
2022-12-01T03:26:08.082Z,20.73
2022-12-01T03:28:41.409Z,20.87
2022-12-01T03:31:13.453Z,23.87
2022-12-01T03:33:49.186Z,22.03
2022-12-01T03:36:42.685Z,21.53
2022-12-01T03:39:15.474Z,22.27
2022-12-01T03:41:48.385Z,23.10
2022-12-01T03:44:20.579Z,21.03
2022-12-01T03:46:58.646Z,21.90
2022-12-01T03:49:26.917Z,22.73
2022-12-01T03:52:12.455Z,21.93
2022-12-01T03:54:46.676Z,22.80
2022-12-01T03:57:28.450Z,21.77
2022-12-01T03:59:55.832Z,21.70
2022-12-01T04:02:25.893Z,22.73
2022-12-01T04:04:52.928Z,21.57
2022-12-01T04:07:21.176Z,22.70
2022-12-01T04:09:48.385Z,22.57
2022-12-01T04:12:30.548Z,22.10
2022-12-01T04:14:58.966Z,21.43
2022-12-01T04:17:26.392Z,27.73
2022-12-01T04:19:53.630Z,22.47
2022-12-01T04:22:20.754Z,22.50
2022-12-01T04:24:47.819Z,23.23
2022-12-01T04:27:15.035Z,22.63
2022-12-01T04:29:41.954Z,21.77
2022-12-01T04:32:10.977Z,22.10
2022-12-01T04:34:37.835Z,21.97
2022-12-01T04:37:06.162Z,22.33
2022-12-01T04:39:36.022Z,21.27
2022-12-01T04:42:03.221Z,23.77
2022-12-01T04:44:34.542Z,21.30
2022-12-01T04:47:02.660Z,23.13
2022-12-01T04:49:29.874Z,22.67
2022-12-01T04:51:59.438Z,21.70
2022-12-01T04:54:26.362Z,23.03
2022-12-01T04:56:53.219Z,22.40
2022-12-01T04:59:20.150Z,21.10
2022-12-01T05:01:48.189Z,22.30
2022-12-01T05:04:15.583Z,22.60
2022-12-01T05:06:42.701Z,22.90
2022-12-01T05:09:17.220Z,21.67
2022-12-01T05:11:44.643Z,23.53
2022-12-01T05:14:11.514Z,23.40
2022-12-01T05:16:38.569Z,22.83
2022-12-01T05:19:25.020Z,24.17
2022-12-01T05:21:52.478Z,22.53
2022-12-01T05:24:21.118Z,25.67
2022-12-01T05:26:48.419Z,22.80
2022-12-01T05:29:18.541Z,23.90
2022-12-01T05:31:46.765Z,22.57
2022-12-01T05:34:13.957Z,23.33
2022-12-01T05:36:40.759Z,23.53
2022-12-01T05:39:07.578Z,23.70
2022-12-01T05:41:34.403Z,22.60
2022-12-01T05:44:01.183Z,22.73
2022-12-01T05:46:28.062Z,23.33
2022-12-01T05:48:54.906Z,27.87
2022-12-01T05:51:21.752Z,22.27
2022-12-01T05:53:48.735Z,22.77
2022-12-01T05:56:15.575Z,21.53
2022-12-01T05:58:42.378Z,23.67
2022-12-01T06:01:09.294Z,23.73
2022-12-01T06:03:36.116Z,23.60
2022-12-01T06:06:03.096Z,22.97
2022-12-01T06:08:29.967Z,22.73
2022-12-01T06:10:57.137Z,23.63
2022-12-01T06:13:23.948Z,25.43
2022-12-01T06:16:02.573Z,23.30
2022-12-01T06:18:38.158Z,24.53
2022-12-01T06:21:06.703Z,23.97
2022-12-01T06:23:34.571Z,29.95
2022-12-01T06:26:01.614Z,24.77
2022-12-01T06:28:28.412Z,25.47
2022-12-01T06:31:01.027Z,25.43
2022-12-01T06:33:29.482Z,24.70
2022-12-01T06:36:05.269Z,24.63
2022-12-01T06:38:34.900Z,24.87
2022-12-01T06:41:02.565Z,25.83
2022-12-01T06:43:29.954Z,24.80
2022-12-01T06:46:01.710Z,25.07
2022-12-01T06:48:29.473Z,25.13
2022-12-01T06:51:00.448Z,25.53
2022-12-01T06:53:28.616Z,24.87
2022-12-01T06:56:04.294Z,25.87
2022-12-01T06:58:31.934Z,23.90
2022-12-01T07:00:59.338Z,25.27
2022-12-01T07:03:26.671Z,24.97
2022-12-01T07:05:59.182Z,25.63
2022-12-01T07:08:27.161Z,28.07
2022-12-01T07:11:07.570Z,23.80
2022-12-01T07:13:35.534Z,28.33
2022-12-01T07:16:03.127Z,33.53
2022-12-01T07:18:30.721Z,34.73
2022-12-01T07:21:21.692Z,24.90
2022-12-01T07:23:48.589Z,23.90
2022-12-01T07:26:17.513Z,23.00
2022-12-01T07:28:45.117Z,24.50
2022-12-01T07:31:14.588Z,23.27
2022-12-01T07:33:41.713Z,23.73
2022-12-01T07:36:09.355Z,22.63
2022-12-01T07:38:39.295Z,23.17
2022-12-01T07:41:11.919Z,22.87
2022-12-01T07:43:39.692Z,23.77
2022-12-01T07:46:08.926Z,22.63
2022-12-01T07:48:37.252Z,22.30
2022-12-01T07:51:05.256Z,21.20
2022-12-01T07:53:32.313Z,21.23
2022-12-01T07:56:02.081Z,22.43
2022-12-01T07:58:32.928Z,21.97
2022-12-01T08:01:05.561Z,21.97
2022-12-01T08:06:14.129Z,19.87
2022-12-01T08:08:41.901Z,20.37
2022-12-01T08:11:14.873Z,19.30
2022-12-01T08:13:42.638Z,20.63
2022-12-01T08:16:13.003Z,20.73
2022-12-01T08:18:41.481Z,21.33
2022-12-01T08:21:10.270Z,21.60
2022-12-01T08:23:37.306Z,20.97
2022-12-01T08:26:09.786Z,20.93
2022-12-01T08:28:37.026Z,19.47
2022-12-01T08:31:09.234Z,20.63
2022-12-01T08:33:36.419Z,20.43
2022-12-01T08:36:05.167Z,21.43
2022-12-01T08:38:32.205Z,21.97
2022-12-01T08:41:08.757Z,22.47
2022-12-01T08:44:01.048Z,22.70
2022-12-01T08:46:34.941Z,24.43
2022-12-01T08:49:03.608Z,24.23
2022-12-01T08:51:30.850Z,24.43
2022-12-01T08:53:58.845Z,24.07
2022-12-01T08:56:35.630Z,22.33
2022-12-01T08:59:02.858Z,22.47
2022-12-01T09:01:30.067Z,22.53
2022-12-01T09:04:13.407Z,20.30
2022-12-01T09:06:42.695Z,21.00
2022-12-01T09:09:11.979Z,22.40
2022-12-01T09:11:40.209Z,21.13
2022-12-01T09:14:07.051Z,22.37
2022-12-01T09:16:34.026Z,21.63
2022-12-01T09:19:00.886Z,20.73
2022-12-01T09:21:31.038Z,22.00
2022-12-01T09:23:58.134Z,22.40
2022-12-01T09:26:25.928Z,20.93
2022-12-01T09:28:58.801Z,22.57
2022-12-01T09:31:25.774Z,21.90
2022-12-01T09:34:01.566Z,21.70
2022-12-01T09:36:30.155Z,21.67
2022-12-01T09:39:00.384Z,21.90
2022-12-01T09:44:24.355Z,22.00
2022-12-01T09:46:58.893Z,21.93
2022-12-01T09:49:40.858Z,25.80
2022-12-01T09:52:12.739Z,23.00
2022-12-01T09:54:40.029Z,22.97
2022-12-01T09:57:11.395Z,21.90
2022-12-01T09:59:42.729Z,21.50
2022-12-01T10:05:01.362Z,20.50
2022-12-01T10:07:33.916Z,22.77
2022-12-01T10:10:24.824Z,22.47
2022-12-01T10:12:53.983Z,22.33
2022-12-01T10:15:41.842Z,22.23
2022-12-01T10:18:15.399Z,23.27
2022-12-01T10:21:01.011Z,22.60
2022-12-01T10:24:05.611Z,22.20
2022-12-01T10:26:44.687Z,21.17
2022-12-01T10:29:34.296Z,21.47
2022-12-01T10:32:19.871Z,20.47
2022-12-01T10:34:47.947Z,20.70
2022-12-01T10:37:22.659Z,20.67
2022-12-01T10:39:52.448Z,20.37
2022-12-01T10:42:37.767Z,20.73
2022-12-01T10:45:08.315Z,20.87
2022-12-01T10:47:35.122Z,21.13
2022-12-01T10:50:04.141Z,21.00
2022-12-01T10:52:38.096Z,21.17
2022-12-01T10:55:23.212Z,22.07
2022-12-01T10:57:53.332Z,22.63
2022-12-01T11:00:57.581Z,22.10
2022-12-01T11:03:22.555Z,21.67
2022-12-01T11:05:58.676Z,19.20
2022-12-01T11:08:38.257Z,19.47
2022-12-01T11:11:05.278Z,19.90
2022-12-01T11:13:36.234Z,19.37
2022-12-01T11:16:08.186Z,21.17
2022-12-01T11:18:37.755Z,20.47
2022-12-01T11:21:25.534Z,19.57
2022-12-01T11:23:55.136Z,18.57
2022-12-01T11:26:26.321Z,19.57
2022-12-01T11:28:59.162Z,17.70
2022-12-01T11:31:44.811Z,19.77
2022-12-01T11:34:23.931Z,18.00
2022-12-01T11:36:56.722Z,19.83
2022-12-01T11:39:27.941Z,18.97
2022-12-01T11:42:00.496Z,19.60
2022-12-01T11:45:01.436Z,19.03
2022-12-01T11:47:28.743Z,19.83
2022-12-01T11:49:59.419Z,23.10
2022-12-01T11:52:33.111Z,20.00
2022-12-01T11:55:19.676Z,20.23
2022-12-01T11:57:50.044Z,19.73
2022-12-01T12:00:20.313Z,18.37
2022-12-01T12:03:04.961Z,19.17
2022-12-01T12:06:05.959Z,20.07
2022-12-01T12:08:52.102Z,19.60
2022-12-01T12:11:39.289Z,18.27
2022-12-01T12:14:30.060Z,18.60
2022-12-01T12:17:16.218Z,18.40
2022-12-01T12:20:14.064Z,19.17
2022-12-01T12:23:06.145Z,17.47
2022-12-01T12:25:42.786Z,17.27
2022-12-01T12:28:30.943Z,18.30
2022-12-01T12:31:00.569Z,18.20
2022-12-01T12:33:36.593Z,17.47
2022-12-01T12:36:35.306Z,18.07
2022-12-01T12:39:16.361Z,17.73
2022-12-01T12:41:50.620Z,19.00
2022-12-01T12:44:35.358Z,18.97
2022-12-01T12:47:47.714Z,17.90
2022-12-01T12:50:42.520Z,17.47
2022-12-01T12:53:25.684Z,18.17
2022-12-01T12:55:58.013Z,17.57
2022-12-01T12:58:34.659Z,18.57
2022-12-01T13:01:06.958Z,18.40
2022-12-01T13:03:55.817Z,18.47
2022-12-01T13:06:29.431Z,17.47
2022-12-01T13:09:02.819Z,18.00
2022-12-01T13:11:53.904Z,17.87
2022-12-01T13:14:20.659Z,18.10
2022-12-01T13:16:50.417Z,19.30
2022-12-01T13:19:23.777Z,18.53
2022-12-01T13:21:52.449Z,18.40
2022-12-01T13:24:23.903Z,18.33
2022-12-01T13:27:11.315Z,18.27
2022-12-01T13:29:43.997Z,18.27
2022-12-01T13:32:29.294Z,19.27
2022-12-01T13:34:56.841Z,18.60
2022-12-01T13:37:41.773Z,17.87
2022-12-01T13:40:24.565Z,18.13
2022-12-01T13:43:10.618Z,18.00
2022-12-01T13:45:40.336Z,18.47
2022-12-01T13:48:45.702Z,19.47
2022-12-01T13:51:12.597Z,17.90
2022-12-01T13:53:52.579Z,19.40
2022-12-01T13:56:22.523Z,17.80
2022-12-01T13:58:54.772Z,18.00
2022-12-01T14:01:22.136Z,18.20
2022-12-01T14:04:11.295Z,17.97
2022-12-01T14:06:51.138Z,19.63
2022-12-01T14:09:38.411Z,18.93
2022-12-01T14:12:18.528Z,19.60
2022-12-01T14:14:54.935Z,18.83
2022-12-01T14:17:26.598Z,18.40
2022-12-01T14:19:54.605Z,18.17
2022-12-01T14:22:43.905Z,18.13
2022-12-01T14:25:22.889Z,18.33
2022-12-01T14:27:53.846Z,20.23
2022-12-01T14:30:39.235Z,18.93
2022-12-01T14:33:40.036Z,17.50
2022-12-01T14:36:23.030Z,19.27
2022-12-01T14:38:54.628Z,20.40
2022-12-01T14:41:27.741Z,19.07
2022-12-01T14:44:05.239Z,18.07
2022-12-01T14:46:41.027Z,19.03
2022-12-01T14:49:14.298Z,19.13
2022-12-01T14:51:46.160Z,20.20
2022-12-01T14:54:20.519Z,20.00
2022-12-01T14:56:50.739Z,19.40
2022-12-01T14:59:24.271Z,18.90
2022-12-01T15:01:54.903Z,20.30
2022-12-01T15:04:21.754Z,19.87
2022-12-01T15:06:55.450Z,19.47
2022-12-01T15:09:38.256Z,20.40
2022-12-01T15:12:07.797Z,19.57
2022-12-01T15:14:46.166Z,21.47
2022-12-01T15:17:31.957Z,23.00
2022-12-01T15:19:59.402Z,21.20
2022-12-01T15:22:31.828Z,21.90
2022-12-01T15:25:15.209Z,22.13
2022-12-01T15:27:43.702Z,22.03
2022-12-01T15:30:15.248Z,21.57
2022-12-01T15:32:45.860Z,20.67
2022-12-01T15:35:20.607Z,23.33
2022-12-01T15:37:47.638Z,21.30
2022-12-01T15:41:06.328Z,23.17
2022-12-01T15:43:14.459Z,21.50
2022-12-01T15:45:59.092Z,24.10
2022-12-01T15:48:34.240Z,23.70
2022-12-01T15:51:17.689Z,23.17
2022-12-01T15:53:58.970Z,22.23
2022-12-01T15:56:32.410Z,22.50
2022-12-01T15:59:12.368Z,21.53
2022-12-01T16:01:41.163Z,22.90
2022-12-01T16:04:24.493Z,22.07
2022-12-01T16:07:01.958Z,21.47
2022-12-01T16:09:37.413Z,21.70
2022-12-01T16:12:13.005Z,21.93
2022-12-01T16:15:01.372Z,22.03
2022-12-01T16:17:40.541Z,22.03
2022-12-01T16:20:31.988Z,22.27
2022-12-01T16:23:01.732Z,23.37
2022-12-01T16:25:37.452Z,23.10
2022-12-01T16:28:06.643Z,22.47
2022-12-01T16:30:40.046Z,23.20
2022-12-01T16:33:28.267Z,23.63
2022-12-01T16:35:55.663Z,24.30
2022-12-01T16:38:24.733Z,26.73
2022-12-01T16:40:58.214Z,28.00
2022-12-01T16:43:26.804Z,28.10
2022-12-01T16:46:03.193Z,28.23
2022-12-01T16:48:30.905Z,28.33
2022-12-01T16:51:02.384Z,28.63
2022-12-01T16:53:29.181Z,29.90
2022-12-01T16:55:58.688Z,29.90
2022-12-01T16:58:25.663Z,29.57
2022-12-01T17:00:52.890Z,30.37
2022-12-01T17:03:27.852Z,32.63
2022-12-01T17:05:55.324Z,31.73
2022-12-01T17:08:22.541Z,29.93
2022-12-01T17:10:50.349Z,32.93
2022-12-01T17:13:18.089Z,31.37
2022-12-01T17:15:50.751Z,30.80
2022-12-01T17:18:20.958Z,28.67
2022-12-01T17:21:02.084Z,29.77
2022-12-01T17:23:29.345Z,32.45
2022-12-01T17:25:56.241Z,26.60
2022-12-01T17:28:23.054Z,25.93
2022-12-01T17:30:50.023Z,26.77
2022-12-01T17:33:16.893Z,26.30
2022-12-01T17:35:43.731Z,28.03
2022-12-01T17:38:10.539Z,47.20
2022-12-01T17:40:37.429Z,28.13
2022-12-01T17:43:06.683Z,28.63
2022-12-01T17:45:33.888Z,29.53
2022-12-01T17:48:00.724Z,28.73
2022-12-01T17:50:27.982Z,27.07
2022-12-01T17:52:54.804Z,26.47
2022-12-01T17:55:21.650Z,31.60
2022-12-01T17:57:48.489Z,26.33
2022-12-01T18:00:16.028Z,25.57
2022-12-01T18:02:42.948Z,24.27
2022-12-01T18:05:09.945Z,23.87
2022-12-01T18:07:36.851Z,23.93
2022-12-01T18:10:04.045Z,24.23
2022-12-01T18:12:30.834Z,24.83
2022-12-01T18:14:57.618Z,25.97
2022-12-01T18:17:25.711Z,25.07
2022-12-01T18:19:52.695Z,25.27
2022-12-01T18:22:19.505Z,23.27
2022-12-01T18:24:46.292Z,23.90
2022-12-01T18:27:13.083Z,22.53
2022-12-01T18:29:39.924Z,22.67
2022-12-01T18:32:06.872Z,21.83
2022-12-01T18:34:34.036Z,21.23
2022-12-01T18:37:05.875Z,22.37
2022-12-01T18:39:33.321Z,22.70
2022-12-01T18:42:00.321Z,26.70
2022-12-01T18:44:27.243Z,28.33
2022-12-01T18:46:54.098Z,28.57
2022-12-01T18:49:21.004Z,25.00
2022-12-01T18:51:47.833Z,26.53
2022-12-01T18:54:16.117Z,36.03
2022-12-01T18:56:45.650Z,33.10
2022-12-01T18:59:13.938Z,23.83
2022-12-01T19:01:44.021Z,25.17
2022-12-01T19:04:11.331Z,24.00
2022-12-01T19:06:42.811Z,25.97
2022-12-01T19:09:11.397Z,27.57
2022-12-01T19:11:40.640Z,24.77
2022-12-01T19:14:11.033Z,25.03
2022-12-01T19:16:39.351Z,25.17
2022-12-01T19:19:06.302Z,24.63
2022-12-01T19:21:33.195Z,25.50
2022-12-01T19:24:00.047Z,24.63
2022-12-01T19:26:26.930Z,24.30
2022-12-01T19:28:53.787Z,30.70
2022-12-01T19:31:23.855Z,25.63
2022-12-01T19:33:52.733Z,25.87
2022-12-01T19:36:22.502Z,26.23
2022-12-01T19:38:49.903Z,26.73
2022-12-01T19:41:20.461Z,25.37
2022-12-01T19:43:47.706Z,39.57
2022-12-01T19:46:17.659Z,37.33
2022-12-01T19:48:44.649Z,31.33
2022-12-01T19:51:20.613Z,31.57
2022-12-01T19:53:47.756Z,33.77
2022-12-01T19:56:15.058Z,45.60
2022-12-01T19:58:42.174Z,31.10
2022-12-01T20:01:12.579Z,31.77
2022-12-01T20:03:40.697Z,29.37
2022-12-01T20:06:39.904Z,31.33
2022-12-01T20:09:07.792Z,32.40
2022-12-01T20:11:35.476Z,31.47
2022-12-01T20:14:04.787Z,32.50
2022-12-01T20:16:32.263Z,32.03
2022-12-01T20:19:04.012Z,31.67
2022-12-01T20:21:35.003Z,34.13
2022-12-01T20:24:08.355Z,34.87
2022-12-01T20:26:41.119Z,31.03
2022-12-01T20:29:11.159Z,29.63
2022-12-01T20:31:40.872Z,27.27
2022-12-01T20:34:15.216Z,26.90
2022-12-01T20:36:42.422Z,25.90
2022-12-01T20:39:10.047Z,27.77
2022-12-01T20:41:37.590Z,25.17
2022-12-01T20:44:07.483Z,23.80
2022-12-01T20:46:35.861Z,25.17
2022-12-01T20:49:03.412Z,24.43
2022-12-01T20:51:33.236Z,26.03
2022-12-01T20:54:27.328Z,25.17
2022-12-01T20:56:52.611Z,23.77
2022-12-01T20:59:19.430Z,22.97
2022-12-01T21:01:46.220Z,24.00
2022-12-01T21:04:12.999Z,24.10
2022-12-01T21:06:39.816Z,25.37
2022-12-01T21:09:07.525Z,23.90
2022-12-01T21:12:20.697Z,23.87
2022-12-01T21:15:27.434Z,23.53
2022-12-01T21:18:04.901Z,24.97
2022-12-01T21:20:40.274Z,26.30
2022-12-01T21:23:16.306Z,25.90
2022-12-01T21:25:43.893Z,25.13
2022-12-01T21:28:23.832Z,25.97
2022-12-01T21:31:18.240Z,23.43
2022-12-01T21:33:45.332Z,26.97
2022-12-01T21:36:31.150Z,25.13
2022-12-01T21:39:16.271Z,25.93
2022-12-01T21:41:43.187Z,26.37
2022-12-01T21:44:17.707Z,25.53
2022-12-01T21:46:49.139Z,27.97
2022-12-01T21:49:19.904Z,26.90
2022-12-01T21:51:48.967Z,27.30
2022-12-01T21:54:21.122Z,27.73
2022-12-01T21:56:49.227Z,26.37
2022-12-01T21:59:20.813Z,24.67
2022-12-01T22:01:53.059Z,25.43
2022-12-01T22:04:25.853Z,25.20
2022-12-01T22:06:57.742Z,26.27
2022-12-01T22:09:35.153Z,27.40
2022-12-01T22:12:22.227Z,27.60
2022-12-01T22:14:49.931Z,27.87
2022-12-01T22:17:20.400Z,26.63
2022-12-01T22:19:57.977Z,25.53
2022-12-01T22:22:27.041Z,26.07
2022-12-01T22:25:24.898Z,25.67
2022-12-01T22:27:51.888Z,24.87
2022-12-01T22:30:23.637Z,26.33
2022-12-01T22:33:03.691Z,27.60
2022-12-01T22:35:49.878Z,28.97
2022-12-01T22:38:28.488Z,28.03
2022-12-01T22:41:25.068Z,27.40
2022-12-01T22:43:56.268Z,26.50
2022-12-01T22:46:25.931Z,26.97
2022-12-01T22:49:06.317Z,26.93
2022-12-01T22:51:38.097Z,25.63
2022-12-01T22:54:24.569Z,27.40
2022-12-01T22:57:01.409Z,27.03
2022-12-01T22:59:33.816Z,27.23
2022-12-01T23:02:06.556Z,27.40
2022-12-01T23:04:38.676Z,27.97
2022-12-01T23:07:25.798Z,28.07
2022-12-01T23:09:52.670Z,25.90
2022-12-01T23:12:26.565Z,26.43
2022-12-01T23:14:58.681Z,26.63
2022-12-01T23:17:31.289Z,28.00
2022-12-01T23:20:10.120Z,27.43
2022-12-01T23:22:37.700Z,27.57
2022-12-01T23:25:19.178Z,26.53
2022-12-01T23:27:48.839Z,26.17
2022-12-01T23:30:17.182Z,26.40
2022-12-01T23:32:44.930Z,27.13
2022-12-01T23:35:16.144Z,27.30
2022-12-01T23:37:46.402Z,26.17
2022-12-01T23:40:30.359Z,26.17
2022-12-01T23:43:17.595Z,26.10
2022-12-01T23:45:45.316Z,28.50
2022-12-01T23:48:22.714Z,25.90
2022-12-01T23:50:52.939Z,26.70
2022-12-01T23:53:29.094Z,26.40
2022-12-01T23:56:01.145Z,26.63
2022-12-01T23:58:28.355Z,28.33
